This is the latest recevied weather packets stored in our database for station/object KD8BMB. If no packets are shown the sender has not sent any weather packets the latest 10 day(s).
| Time | Temp. | Humidity | Pressure | Rain* | Wind** | Luminosity | Snow |
|---|---|---|---|---|---|---|---|
| 1777914755 | 23.33° C | 34% | 1000.8 hPa | 0 mm | - | 700 W/m² | - |
| 1777914452 | 23.33° C | 39% | 1000.8 hPa | 0 mm | - | 707 W/m² | - |
| 1777914149 | 23.33° C | 38% | 1000.9 hPa | 0 mm | - | 718 W/m² | - |
| 1777913845 | 23.33° C | 39% | 1001 hPa | 0 mm | - | 714 W/m² | - |
| 1777913541 | 23.33° C | 40% | 1001.2 hPa | 0 mm | - | 718 W/m² | - |
| 1777913238 | 22.78° C | 43% | 1001.2 hPa | 0 mm | - | 718 W/m² | - |
| 1777912936 | 22.78° C | 42% | 1001.2 hPa | 0 mm | - | 725 W/m² | - |
| 1777912631 | 22.78° C | 42% | 1001.6 hPa | 0 mm | - | 734 W/m² | - |
| 1777912327 | 22.78° C | 40% | 1001.7 hPa | 0 mm | - | 756 W/m² | - |
| 1777912023 | 22.22° C | 43% | 1001.7 hPa | 0 mm | - | 755 W/m² | - |
| 1777911719 | 22.22° C | 45% | 1001.7 hPa | 0 mm | - | 744 W/m² | - |
| 1777911416 | 21.67° C | 43% | 1001.7 hPa | 0 mm | - | 739 W/m² | - |
| 1777911114 | 21.11° C | 46% | 1001.8 hPa | 0 mm | - | 760 W/m² | - |
| 1777910811 | 21.67° C | 42% | 1001.8 hPa | 0 mm | - | 772 W/m² | - |
| 1777910508 | 21.11° C | 47% | 1002 hPa | 0 mm | - | 771 W/m² | - |
| 1777910204 | 21.67° C | 46% | 1002.1 hPa | 0 mm | - | 779 W/m² | - |
| 1777909901 | 20.56° C | 49% | 1002.3 hPa | 0 mm | - | 743 W/m² | - |
| 1777909598 | 21.11° C | 50% | 1002.4 hPa | 0 mm | - | 757 W/m² | - |
| 1777909296 | 20.56° C | 53% | 1002.5 hPa | 0 mm | - | 751 W/m² | - |
| 1777908993 | 20.56° C | 53% | 1002.4 hPa | 0 mm | - | 765 W/m² | - |
| 1777908691 | 20° C | 54% | 1002.5 hPa | 0 mm | - | 773 W/m² | - |
| 1777908388 | 20° C | 54% | 1002.6 hPa | 0 mm | - | 760 W/m² | - |
| 1777908084 | 20° C | 55% | 1002.8 hPa | 0 mm | - | 761 W/m² | - |
| 1777907780 | 20° C | 55% | 1002.9 hPa | 0 mm | - | 776 W/m² | - |
| 1777907475 | 19.44° C | 57% | 1002.7 hPa | 0 mm | - | 772 W/m² | - |
* Rain latest hour (hover to see other rain measurements)
** Current wind speed in m/s (hover to see current wind gust speed)